Terminal Aerodrome Forecast
Issued by NWS

Current Version | Previous Version | Text Only | Print | Product List | Glossary Off
Versions: 1 2 3 4 5 6 7 8 9 10 11 12 13 14 15 16 17 18 19 20 21 22 23 24 25 26

000
FTUS41 KPBZ 010800 AAB
TAFHLG
TAF AMD
KHLG 010800Z 0108/0206 VRB05KT 1SM -SN OVC015
      TEMPO 0108/0112 1/2SM SN OVC008
     FM020200 26006KT 3SM -SN OVC015=

USA.gov is the U.S. government's official web portal to all federal, state and local government web resources and services.